Latest Weather Observations for Katanning RS

IDW60801

Issued at 8:02 am WST Wednesday 1 April 2015 (issued every 30 minutes, with the page automatically refreshed every 10 minutes)

About weather observations | Map of weather stations | Latest weather observations for WA | Other Formats
Station Details ID: 010916 Name: KATANNING Lat: -33.69 Lon: 117.61 Height: 320.0 m
Data from the previous 72 hours. | See also: Recent months at Katanning RS
Date/Time
WST
Temp
°C
App
Temp
°C
Dew
Point
Rel
Hum
%
Delta-T
°C
Wind Press
QNH
hPa
Press
MSL
hPa
Rain
since 9 am
mm
Dir
 
Spd
km/h
Gust
km/h
Spd
kts
Gust
kts
01/08:00am 14.6 12.0 7.9 64 3.4 ESE 11 17 6 9 1026.4 1025.7 0.0
01/07:30am 14.0 11.5 8.4 69 2.8 SE 11 17 6 9 1026.1 1025.0 0.0
01/07:00am 13.8 11.6 8.0 68 2.9 SE 9 13 5 7 1025.8 1024.7 0.0
01/06:30am 13.7 11.1 7.9 68 2.9 ESE 11 17 6 9 1025.3 1024.3 0.0
01/06:00am 13.7 11.2 8.3 70 2.7 SE 11 15 6 8 1025.2 1024.2 0.0
01/05:30am 13.6 10.7 8.2 70 2.7 SE 13 17 7 9 1025.0 1024.0 0.0
01/05:00am 13.7 10.4 8.1 69 2.8 SE 15 22 8 12 1024.7 1023.6 0.0
01/04:30am 13.7 10.8 8.1 69 2.8 SE 13 19 7 10 1024.4 1023.3 0.0
01/04:00am 13.6 10.3 8.0 69 2.8 SE 15 24 8 13 1024.2 1023.1 0.0
01/03:30am 13.8 11.6 9.3 74 2.3 SE 11 15 6 8 1024.1 1023.0 0.0
01/03:00am 13.4 10.8 9.5 77 2.0 SE 13 17 7 9 1024.0 1022.9 0.0
01/02:30am 13.4 10.8 9.5 77 2.0 SE 13 19 7 10 1023.8 1022.7 0.0
01/02:00am 13.2 10.9 8.9 75 2.2 S 11 17 6 9 1023.9 1022.8 0.0
01/01:30am 13.5 11.2 9.0 74 2.3 SSE 11 15 6 8 1023.6 1022.5 0.0
01/01:00am 13.2 11.2 8.7 74 2.3 SSE 9 13 5 7 1023.4 1022.3 0.0
01/12:30am 12.8 11.1 8.3 74 2.3 S 7 13 4 7 1023.2 1022.1 0.0
01/12:00am 12.4 10.2 7.9 74 2.2 SSW 9 11 5 6 1023.0 1021.9 0.0
 
Date/Time
WST
Temp
°C
App
Temp
°C
Dew
Point
Rel
Hum
%
Delta-T
°C
Wind Press
QNH
hPa
Press
MSL
hPa
Rain
since 9 am
mm
Dir
 
Spd
km/h
Gust
km/h
Spd
kts
Gust
kts
31/11:30pm 11.9 9.6 7.6 75 2.1 SSW 9 11 5 6 1023.0 1021.9 0.0
31/11:00pm 11.9 10.0 7.4 74 2.2 SSW 7 9 4 5 1023.0 1021.9 0.0
31/10:30pm 11.9 10.1 7.0 72 2.4 SSW 6 7 3 4 1022.9 1021.8 0.0
31/10:00pm 12.9 11.0 7.6 70 2.6 S 7 11 4 6 1022.8 1021.7 0.0
31/09:30pm 13.4 11.1 7.6 68 2.9 S 9 15 5 8 1022.6 1021.5 0.0
31/09:00pm 13.8 11.7 8.4 70 2.7 S 9 15 5 8 1022.1 1021.1 0.0
31/08:30pm 14.2 11.1 8.8 70 2.8 S 15 26 8 14 1021.8 1020.7 0.0
31/08:00pm 14.9 11.1 9.9 72 2.6 S 20 30 11 16 1021.5 1020.4 0.0
31/07:30pm 15.3 10.7 10.9 75 2.4 S 26 37 14 20 1020.8 1019.7 0.0
31/07:00pm 16.0 11.9 11.4 74 2.5 S 24 35 13 19 1020.3 1019.2 0.0
31/06:30pm 16.6 12.3 12.0 74 2.6 S 26 37 14 20 1019.6 1018.5 0.0
31/06:00pm 18.2 15.0 12.0 67 3.5 S 20 35 11 19 1019.0 1017.8 0.0
31/05:30pm 19.6 14.9 12.1 62 4.2 S 28 43 15 23 1018.2 1017.1 0.0
31/05:00pm 22.4 18.5 10.9 48 6.4 SSW 22 43 12 23 1017.3 1016.2 0.0
31/04:30pm 23.7 20.4 6.5 33 9.0 SSW 13 20 7 11 1017.0 1015.9 0.0
31/04:00pm 24.1 20.9 6.8 33 9.1 SSW 13 17 7 9 1016.8 1015.7 0.0
31/03:30pm 24.3 20.4 8.7 37 8.5 SW 19 26 10 14 1016.8 1015.7 0.0
31/03:00pm 24.4 20.3 8.0 35 8.8 SW 19 33 10 18 1016.9 1015.8 0.0
31/02:30pm 22.8 20.0 9.9 44 7.1 SSW 15 24 8 13 1016.9 1015.8 0.0
31/02:00pm 23.0 19.6 11.1 47 6.7 SW 20 30 11 16 1016.9 1015.8 0.0
31/01:30pm 23.2 19.4 9.9 43 7.4 SW 20 26 11 14 1016.8 1015.7 0.0
31/01:00pm 24.2 20.7 10.1 41 7.9 SW 19 30 10 16 1016.9 1015.8 0.0
31/12:30pm 24.2 20.8 9.0 38 8.3 SW 17 24 9 13 1017.0 1015.9 0.0
31/12:00pm 23.4 20.5 8.3 38 8.1 SW 13 24 7 13 1017.1 1016.0 0.0
31/11:30am 23.2 21.3 8.9 40 7.8 SW 9 19 5 10 1017.3 1016.2 0.0
31/11:00am 22.6 20.9 9.7 44 7.1 S 9 15 5 8 1017.6 1016.5 0.0
31/10:30am 21.4 19.7 9.9 48 6.3 SW 9 17 5 9 1017.8 1016.7 0.0
31/10:00am 20.7 19.2 10.5 52 5.6 SW 9 15 5 8 1017.8 1016.7 0.0
31/09:30am 19.8 18.5 11.3 58 4.7 S 9 17 5 9 1017.8 1016.7 0.0
31/09:00am 18.8 17.2 11.6 63 4.0 S 11 19 6 10 1017.9 1016.8 0.0
31/08:30am 18.0 16.9 12.0 68 3.4 S 9 13 5 7 1017.9 1016.8 0.0
31/08:00am 17.4 16.3 12.1 71 3.0 S 9 13 5 7 1017.8 1016.7 0.0
31/07:30am 17.1 16.5 12.4 74 2.6 S 7 11 4 6 1017.5 1016.4 0.0
31/07:00am 16.4 15.7 12.0 75 2.4 S 7 11 4 6 1017.3 1016.2 0.0
31/06:30am 16.8 15.2 11.7 72 2.8 S 11 17 6 9 1017.0 1015.9 0.0
31/06:00am 17.3 16.2 12.0 71 3.0 S 9 13 5 7 1017.0 1015.9 0.0
31/05:30am 17.2 16.8 12.5 74 2.6 S 6 7 3 4 1016.8 1015.7 0.0
31/05:00am 17.1 15.8 12.6 75 2.5 S 11 15 6 8 1016.6 1015.4 0.0
31/04:30am 17.0 15.8 12.7 76 2.4 S 11 15 6 8 1016.3 1015.1 0.0
31/04:00am 17.1 15.9 12.8 76 2.4 S 11 15 6 8 1016.0 1014.8 0.0
31/03:30am 17.3 17.1 13.6 79 2.1 S 7 9 4 5 1015.9 1014.7 0.0
31/03:00am 17.2 17.2 13.5 79 2.1 S 6 7 3 4 1016.2 1015.0 0.0
31/02:30am 17.2 17.0 13.7 80 2.0 S 7 9 4 5 1016.4 1015.2 0.0
31/02:00am 17.2 17.2 13.5 79 2.1 S 6 9 3 5 1016.6 1015.4 0.0
31/01:30am 17.4 17.2 13.7 79 2.1 SSE 7 11 4 6 1016.9 1015.8 0.0
31/01:00am 17.5 17.3 13.6 78 2.2 ESE 7 9 4 5 1017.4 1016.3 0.0
31/12:30am 17.6 18.0 13.7 78 2.2 ESE 4 6 2 3 1017.6 1016.5 0.0
31/12:00am 17.4 18.5 13.5 78 2.2 CALM 0 0 0 0 1017.6 1016.5 0.0
 
Date/Time
WST
Temp
°C
App
Temp
°C
Dew
Point
Rel
Hum
%
Delta-T
°C
Wind Press
QNH
hPa
Press
MSL
hPa
Rain
since 9 am
mm
Dir
 
Spd
km/h
Gust
km/h
Spd
kts
Gust
kts
30/11:30pm 17.5 18.5 13.2 76 2.5 CALM 0 0 0 0 1017.9 1016.8 0.0
30/11:00pm 18.1 18.2 14.0 77 2.4 SE 6 9 3 5 1017.9 1016.8 0.0
30/10:30pm 18.3 18.5 14.2 77 2.4 SSE 6 7 3 4 1017.9 1016.8 0.0
30/10:00pm 18.4 17.3 14.3 77 2.4 SSE 13 19 7 10 1017.3 1016.2 0.0
30/09:30pm 18.8 17.8 14.5 76 2.5 S 13 17 7 9 1017.3 1016.2 0.0
30/09:00pm 19.2 17.9 14.7 75 2.7 S 15 24 8 13 1017.4 1016.3 0.0
30/08:30pm 20.1 18.1 14.9 72 3.1 S 19 26 10 14 1017.2 1016.1 0.0
30/08:00pm 21.7 20.4 14.8 65 4.1 S 15 22 8 12 1017.0 1015.9 0.0
30/07:30pm 23.0 21.0 13.8 56 5.4 S 17 26 9 14 1016.5 1015.3 0.0
30/07:00pm 25.7 22.7 5.8 28 10.4 WSW 11 15 6 8 1016.0 1014.8 0.0
30/06:30pm 26.3 22.8 5.3 26 10.9 WSW 13 17 7 9 1015.7 1014.5 0.0
30/06:00pm 27.5 23.2 5.1 24 11.7 WSW 17 22 9 12 1015.4 1014.3 0.0
30/05:30pm 28.7 24.7 4.9 22 12.4 W 15 22 8 12 1015.0 1013.9 0.0
30/05:00pm 29.5 26.1 4.2 20 13.1 WNW 11 17 6 9 1014.7 1013.6 0.0
30/04:30pm 30.0 26.2 3.9 19 13.5 W 13 20 7 11 1014.2 1013.1 0.0
30/04:00pm 30.4 26.0 4.9 20 13.5 NW 17 24 9 13 1014.1 1013.0 0.0
30/03:30pm 30.5 24.9 3.5 18 13.9 WNW 22 32 12 17 1014.0 1012.9 0.0
30/03:00pm 30.8 25.6 3.8 18 14.0 WNW 20 28 11 15 1013.9 1012.7 0.0
30/02:30pm 31.4 25.9 4.2 18 14.3 NW 22 33 12 18 1014.0 1012.9 0.0
30/02:00pm 31.2 26.3 4.1 18 14.2 NW 19 32 10 17 1014.2 1013.1 0.0
30/01:30pm 31.9 26.4 3.8 17 14.7 NW 22 33 12 18 1014.3 1013.2 0.0
30/01:00pm 31.8 26.4 4.6 18 14.4 NNW 22 33 12 18 1014.6 1013.5 0.0
30/12:30pm 31.4 26.9 4.2 18 14.3 NNW 17 35 9 19 1015.1 1014.0 0.0
30/12:00pm 30.9 25.1 4.6 19 13.9 NNW 24 37 13 20 1015.7 1014.5 0.0
30/11:30am 30.6 26.4 5.8 21 13.3 N 17 28 9 15 1016.1 1014.9 0.0
30/11:00am 29.6 25.7 6.9 24 12.3 N 17 24 9 13 1016.6 1015.4 0.0
30/10:30am 27.9 24.0 7.2 27 11.2 N 17 22 9 12 1017.0 1015.9 0.0
30/10:00am 25.9 21.6 7.0 30 10.1 N 19 28 10 15 1017.4 1016.3 0.0
30/09:30am 25.1 20.3 7.3 32 9.5 N 22 30 12 16 1017.5 1016.4 0.0
30/09:00am 22.9 18.5 7.4 37 8.2 N 20 24 11 13 1017.9 1016.8 0.0
30/08:30am 21.3 18.8 8.2 43 7.0 NNE 11 19 6 10 1018.0 1016.9 0.0
30/08:00am 17.5 17.3 10.6 64 3.7 NNE 2 6 1 3 1018.1 1017.0 0.0
30/07:30am 15.9 16.2 10.9 72 2.7 CALM 0 0 0 0 1018.0 1016.9 0.0
30/07:00am 13.0 13.1 10.0 82 1.6 CALM 0 0 0 0 1017.9 1016.8 0.0
30/06:30am 12.7 12.6 9.5 81 1.7 CALM 0 0 0 0 1017.9 1016.8 0.0
30/06:00am 12.8 12.7 9.3 79 1.8 CALM 0 0 0 0 1017.9 1016.8 0.0
30/05:30am 13.4 13.3 9.5 77 2.0 CALM 0 0 0 0 1017.8 1016.7 0.0
30/05:00am 13.5 13.4 9.6 77 2.0 CALM 0 0 0 0 1017.6 1016.5 0.0
30/04:30am 13.2 13.0 8.9 75 2.2 CALM 0 0 0 0 1017.6 1016.5 0.0
30/04:00am 13.3 12.1 9.4 77 2.0 NE 6 7 3 4 1017.8 1016.7 0.0
30/03:30am 14.1 13.4 10.1 77 2.1 ENE 4 6 2 3 1017.5 1016.4 0.0
30/03:00am 14.4 14.1 10.2 76 2.2 E 2 4 1 2 1017.5 1016.4 0.0
30/02:30am 14.2 14.2 9.8 75 2.3 CALM 0 2 0 1 1017.7 1016.6 0.0
30/02:00am 14.6 14.8 10.4 76 2.2 CALM 0 0 0 0 1017.8 1016.7 0.0
30/01:30am 14.6 14.7 10.0 74 2.4 CALM 0 0 0 0 1018.1 1017.0 0.0
30/01:00am 15.0 14.3 10.0 72 2.6 ESE 4 7 2 4 1018.2 1017.1 0.0
30/12:30am 15.4 14.3 10.0 70 2.9 SE 6 6 3 3 1018.5 1017.4 0.0
30/12:00am 15.6 14.2 9.7 68 3.1 S 7 9 4 5 1018.6 1017.5 0.0
 
Date/Time
WST
Temp
°C
App
Temp
°C
Dew
Point
Rel
Hum
%
Delta-T
°C
Wind Press
QNH
hPa
Press
MSL
hPa
Rain
since 9 am
mm
Dir
 
Spd
km/h
Gust
km/h
Spd
kts
Gust
kts
29/11:30pm 15.5 13.4 8.3 62 3.7 SW 9 17 5 9 1018.8 1017.7 0.0
29/11:00pm 16.9 15.8 7.0 52 5.0 SE 2 4 1 2 1018.8 1017.7 0.0
29/10:30pm 18.4 16.3 5.9 44 6.2 ESE 6 6 3 3 1019.0 1017.8 0.0
29/10:00pm 18.0 15.9 3.9 39 6.7 NE 4 7 2 4 1019.1 1017.9 0.0
29/09:30pm 20.5 18.7 5.3 37 7.6 N 4 4 2 2 1019.3 1018.1 0.0
29/09:00pm 20.7 18.5 5.1 36 7.8 N 6 7 3 4 1019.6 1018.5 0.0
29/08:30pm 21.9 20.0 4.9 33 8.5 N 4 6 2 3 1019.7 1018.6 0.0
29/08:00pm 22.3 20.4 4.8 32 8.8 N 4 6 2 3 1019.5 1018.4 0.0
29/07:30pm 23.0 20.7 5.0 31 9.1 N 6 6 3 3 1019.3 1018.1 0.0
29/07:00pm 23.4 21.1 4.9 30 9.3 NNE 6 6 3 3 1019.2 1018.0 0.0
29/06:30pm 23.9 21.3 4.3 28 9.8 NNE 7 9 4 5 1018.8 1017.7 0.0
29/06:00pm 25.7 22.7 4.2 25 10.9 NE 9 13 5 7 1018.7 1017.6 0.0
29/05:30pm 27.1 24.5 4.2 23 11.7 N 7 11 4 6 1018.6 1017.5 0.0
29/05:00pm 27.6 24.3 4.6 23 11.9 NE 11 17 6 9 1018.4 1017.3 0.0
29/04:30pm 28.2 25.3 4.5 22 12.3 NNW 9 15 5 8 1018.6 1017.5 0.0
29/04:00pm 27.6 26.3 5.8 25 11.5 SSE 2 6 1 3 1018.6 1017.5 0.0
29/03:30pm 27.2 25.0 5.5 25 11.4 ESE 6 13 3 7 1018.7 1017.6 0.0
29/03:00pm 27.4 24.7 5.6 25 11.4 NW 9 22 5 12 1019.1 1017.9 0.0
29/02:30pm 27.4 23.9 5.6 25 11.5 N 13 26 7 14 1019.2 1018.0 0.0
29/02:00pm 27.0 24.9 5.9 26 11.1 N 6 15 3 8 1019.4 1018.2 0.0
29/01:30pm 26.6 24.3 5.5 26 11.0 WSW 7 13 4 7 1019.7 1018.6 0.0
29/01:00pm 26.6 23.9 5.5 26 11.0 NW 9 19 5 10 1020.2 1019.1 0.0
29/12:30pm 26.2 24.0 7.7 31 10.0 NNW 9 15 5 8 1020.6 1019.5 0.0
29/12:00pm 25.3 22.2 7.4 32 9.6 NNW 13 19 7 10 1021.2 1020.1 0.0
29/11:30am 24.0 21.3 8.8 38 8.3 N 13 20 7 11 1021.6 1020.5 0.0
29/11:00am 23.3 20.3 9.3 41 7.6 NNE 15 26 8 14 1022.0 1020.9 0.0
29/10:30am 22.2 19.1 8.7 42 7.3 NNE 15 20 8 11 1022.5 1021.4 0.0
29/10:00am 20.8 18.1 9.1 47 6.3 NE 13 19 7 10 1022.7 1021.6 0.0
29/09:30am 19.2 17.5 9.9 55 5.0 E 9 15 5 8 1023.0 1021.9 0.0
29/09:00am 18.2 16.3 10.6 61 4.1 ENE 11 15 6 8 1023.1 1022.0 0.0
29/08:30am 16.4 14.1 10.3 67 3.3 ENE 13 15 7 8 1023.2 1022.1 0.0

Other Formats:

Comma delimited format used in spreadsheet applications
http://www.bom.gov.au/fwo/IDW60801/IDW60801.94641.axf

JavaScript Object Notation format (JSON) in row-major order
http://www.bom.gov.au/fwo/IDW60801/IDW60801.94641.json